sensor_id;sensor_type;location;lat;lon;timestamp;P1;durP1;ratioP1;P2;durP2;ratioP2
24151;SDS011;12311;50.866;4.332;2023-07-09T00:00:50;5.65;;;2.67;;
24151;SDS011;12311;50.866;4.332;2023-07-09T00:03:17;7.30;;;2.92;;
24151;SDS011;12311;50.866;4.332;2023-07-09T00:05:45;7.10;;;3.05;;
24151;SDS011;12311;50.866;4.332;2023-07-09T00:10:53;4.70;;;2.40;;
24151;SDS011;12311;50.866;4.332;2023-07-09T00:13:20;11.07;;;2.70;;
24151;SDS011;12311;50.866;4.332;2023-07-09T00:15:47;6.90;;;3.05;;
24151;SDS011;12311;50.866;4.332;2023-07-09T00:18:13;5.82;;;2.58;;
24151;SDS011;12311;50.866;4.332;2023-07-09T00:20:39;7.13;;;3.63;;
24151;SDS011;12311;50.866;4.332;2023-07-09T00:23:08;6.82;;;2.63;;
24151;SDS011;12311;50.866;4.332;2023-07-09T00:25:34;8.63;;;3.42;;
24151;SDS011;12311;50.866;4.332;2023-07-09T00:28:01;6.30;;;2.65;;
24151;SDS011;12311;50.866;4.332;2023-07-09T00:30:27;7.75;;;3.45;;
24151;SDS011;12311;50.866;4.332;2023-07-09T00:32:53;6.00;;;3.05;;
24151;SDS011;12311;50.866;4.332;2023-07-09T00:35:19;7.75;;;3.55;;
24151;SDS011;12311;50.866;4.332;2023-07-09T00:37:47;7.25;;;3.00;;
24151;SDS011;12311;50.866;4.332;2023-07-09T00:40:16;6.03;;;3.00;;
24151;SDS011;12311;50.866;4.332;2023-07-09T00:42:48;8.40;;;3.13;;
24151;SDS011;12311;50.866;4.332;2023-07-09T00:45:22;5.50;;;3.03;;
24151;SDS011;12311;50.866;4.332;2023-07-09T00:48:34;6.68;;;3.00;;
24151;SDS011;12311;50.866;4.332;2023-07-09T00:50:48;7.13;;;3.17;;
24151;SDS011;12311;50.866;4.332;2023-07-09T00:55:51;9.63;;;3.85;;
24151;SDS011;12311;50.866;4.332;2023-07-09T01:00:53;10.00;;;4.05;;
24151;SDS011;12311;50.866;4.332;2023-07-09T01:08:20;6.70;;;4.10;;
24151;SDS011;12311;50.866;4.332;2023-07-09T01:10:46;6.13;;;3.30;;
24151;SDS011;12311;50.866;4.332;2023-07-09T01:13:12;5.47;;;2.85;;
24151;SDS011;12311;50.866;4.332;2023-07-09T01:15:39;7.43;;;3.22;;
24151;SDS011;12311;50.866;4.332;2023-07-09T01:18:05;7.72;;;3.47;;
24151;SDS011;12311;50.866;4.332;2023-07-09T01:20:31;5.05;;;3.35;;
24151;SDS011;12311;50.866;4.332;2023-07-09T01:22:58;7.78;;;2.80;;
24151;SDS011;12311;50.866;4.332;2023-07-09T01:25:26;6.28;;;2.65;;
24151;SDS011;12311;50.866;4.332;2023-07-09T01:27:53;6.05;;;2.72;;
24151;SDS011;12311;50.866;4.332;2023-07-09T01:32:49;6.93;;;2.83;;
24151;SDS011;12311;50.866;4.332;2023-07-09T01:35:17;6.25;;;2.85;;
24151;SDS011;12311;50.866;4.332;2023-07-09T01:37:44;8.25;;;2.85;;
24151;SDS011;12311;50.866;4.332;2023-07-09T01:40:12;6.03;;;3.00;;
24151;SDS011;12311;50.866;4.332;2023-07-09T01:42:41;6.60;;;2.95;;
24151;SDS011;12311;50.866;4.332;2023-07-09T01:45:08;11.90;;;3.22;;
24151;SDS011;12311;50.866;4.332;2023-07-09T01:47:35;6.18;;;2.75;;
24151;SDS011;12311;50.866;4.332;2023-07-09T01:50:02;16.00;;;3.67;;
24151;SDS011;12311;50.866;4.332;2023-07-09T01:52:29;7.32;;;3.05;;
24151;SDS011;12311;50.866;4.332;2023-07-09T01:54:57;6.75;;;2.67;;
24151;SDS011;12311;50.866;4.332;2023-07-09T01:57:27;7.20;;;3.08;;
24151;SDS011;12311;50.866;4.332;2023-07-09T02:00:09;8.68;;;2.53;;
24151;SDS011;12311;50.866;4.332;2023-07-09T02:02:38;5.70;;;2.92;;
24151;SDS011;12311;50.866;4.332;2023-07-09T02:05:08;4.32;;;2.33;;
24151;SDS011;12311;50.866;4.332;2023-07-09T02:07:34;4.43;;;2.58;;
24151;SDS011;12311;50.866;4.332;2023-07-09T02:10:00;3.70;;;2.53;;
24151;SDS011;12311;50.866;4.332;2023-07-09T02:12:26;6.38;;;2.42;;
24151;SDS011;12311;50.866;4.332;2023-07-09T02:14:51;5.80;;;2.65;;
24151;SDS011;12311;50.866;4.332;2023-07-09T02:17:17;4.15;;;2.33;;
24151;SDS011;12311;50.866;4.332;2023-07-09T02:19:43;4.80;;;2.55;;
24151;SDS011;12311;50.866;4.332;2023-07-09T02:22:09;5.50;;;2.53;;
24151;SDS011;12311;50.866;4.332;2023-07-09T02:24:36;4.57;;;2.42;;
24151;SDS011;12311;50.866;4.332;2023-07-09T02:27:03;4.25;;;1.85;;
24151;SDS011;12311;50.866;4.332;2023-07-09T02:29:31;2.75;;;1.88;;
24151;SDS011;12311;50.866;4.332;2023-07-09T02:31:58;4.40;;;2.33;;
24151;SDS011;12311;50.866;4.332;2023-07-09T02:34:25;5.70;;;2.95;;
24151;SDS011;12311;50.866;4.332;2023-07-09T02:36:52;5.70;;;2.13;;
24151;SDS011;12311;50.866;4.332;2023-07-09T02:39:19;3.65;;;2.08;;
24151;SDS011;12311;50.866;4.332;2023-07-09T02:41:45;4.97;;;1.95;;
24151;SDS011;12311;50.866;4.332;2023-07-09T02:44:11;4.78;;;2.40;;
24151;SDS011;12311;50.866;4.332;2023-07-09T02:46:37;5.40;;;1.75;;
24151;SDS011;12311;50.866;4.332;2023-07-09T02:49:03;3.63;;;1.73;;
24151;SDS011;12311;50.866;4.332;2023-07-09T02:51:30;6.55;;;2.17;;
24151;SDS011;12311;50.866;4.332;2023-07-09T02:53:57;3.25;;;1.63;;
24151;SDS011;12311;50.866;4.332;2023-07-09T02:56:24;4.30;;;1.75;;
24151;SDS011;12311;50.866;4.332;2023-07-09T02:58:50;4.55;;;1.88;;
24151;SDS011;12311;50.866;4.332;2023-07-09T03:01:17;4.60;;;2.28;;
24151;SDS011;12311;50.866;4.332;2023-07-09T03:03:43;4.15;;;1.95;;
24151;SDS011;12311;50.866;4.332;2023-07-09T03:06:09;4.68;;;2.03;;
24151;SDS011;12311;50.866;4.332;2023-07-09T03:08:35;3.47;;;1.88;;
24151;SDS011;12311;50.866;4.332;2023-07-09T03:11:10;2.78;;;1.80;;
24151;SDS011;12311;50.866;4.332;2023-07-09T03:13:37;3.35;;;1.88;;
24151;SDS011;12311;50.866;4.332;2023-07-09T03:16:02;7.20;;;2.00;;
24151;SDS011;12311;50.866;4.332;2023-07-09T03:18:28;4.03;;;2.13;;
24151;SDS011;12311;50.866;4.332;2023-07-09T03:20:54;3.13;;;2.00;;
24151;SDS011;12311;50.866;4.332;2023-07-09T03:23:20;2.70;;;1.80;;
24151;SDS011;12311;50.866;4.332;2023-07-09T03:25:46;3.13;;;1.80;;
24151;SDS011;12311;50.866;4.332;2023-07-09T03:28:11;5.05;;;1.85;;
24151;SDS011;12311;50.866;4.332;2023-07-09T03:30:41;7.18;;;2.00;;
24151;SDS011;12311;50.866;4.332;2023-07-09T03:33:09;3.72;;;1.85;;
24151;SDS011;12311;50.866;4.332;2023-07-09T03:35:35;2.40;;;1.63;;
24151;SDS011;12311;50.866;4.332;2023-07-09T03:38:03;6.57;;;2.20;;
24151;SDS011;12311;50.866;4.332;2023-07-09T03:40:30;2.40;;;1.65;;
24151;SDS011;12311;50.866;4.332;2023-07-09T03:42:56;6.10;;;2.03;;
24151;SDS011;12311;50.866;4.332;2023-07-09T03:45:21;6.72;;;2.00;;
24151;SDS011;12311;50.866;4.332;2023-07-09T03:47:47;5.18;;;2.50;;
24151;SDS011;12311;50.866;4.332;2023-07-09T03:50:13;8.05;;;2.90;;
24151;SDS011;12311;50.866;4.332;2023-07-09T03:52:38;3.97;;;1.90;;
24151;SDS011;12311;50.866;4.332;2023-07-09T03:55:04;9.00;;;2.72;;
24151;SDS011;12311;50.866;4.332;2023-07-09T03:57:31;3.95;;;2.17;;
24151;SDS011;12311;50.866;4.332;2023-07-09T03:59:57;4.22;;;2.35;;
24151;SDS011;12311;50.866;4.332;2023-07-09T04:02:23;5.95;;;2.33;;
24151;SDS011;12311;50.866;4.332;2023-07-09T04:04:49;14.02;;;2.33;;
24151;SDS011;12311;50.866;4.332;2023-07-09T04:07:15;4.82;;;1.95;;
24151;SDS011;12311;50.866;4.332;2023-07-09T04:09:41;7.22;;;2.70;;
24151;SDS011;12311;50.866;4.332;2023-07-09T04:12:08;5.18;;;2.13;;
24151;SDS011;12311;50.866;4.332;2023-07-09T04:14:34;3.05;;;2.10;;
24151;SDS011;12311;50.866;4.332;2023-07-09T04:17:00;6.35;;;2.45;;
24151;SDS011;12311;50.866;4.332;2023-07-09T04:19:26;4.53;;;2.67;;
24151;SDS011;12311;50.866;4.332;2023-07-09T04:21:52;4.90;;;1.95;;
24151;SDS011;12311;50.866;4.332;2023-07-09T04:24:18;5.95;;;2.78;;
24151;SDS011;12311;50.866;4.332;2023-07-09T04:26:44;4.15;;;2.17;;
24151;SDS011;12311;50.866;4.332;2023-07-09T04:29:10;5.05;;;2.65;;
24151;SDS011;12311;50.866;4.332;2023-07-09T04:31:36;5.22;;;1.98;;
24151;SDS011;12311;50.866;4.332;2023-07-09T04:34:02;5.22;;;2.47;;
24151;SDS011;12311;50.866;4.332;2023-07-09T04:36:29;4.95;;;2.42;;
24151;SDS011;12311;50.866;4.332;2023-07-09T04:38:54;5.30;;;2.33;;
24151;SDS011;12311;50.866;4.332;2023-07-09T04:41:20;5.85;;;2.72;;
24151;SDS011;12311;50.866;4.332;2023-07-09T04:43:46;6.40;;;2.33;;
24151;SDS011;12311;50.866;4.332;2023-07-09T04:46:12;5.53;;;2.30;;
24151;SDS011;12311;50.866;4.332;2023-07-09T04:48:37;6.00;;;2.85;;
24151;SDS011;12311;50.866;4.332;2023-07-09T04:51:03;8.75;;;2.95;;
24151;SDS011;12311;50.866;4.332;2023-07-09T04:53:29;9.60;;;3.50;;
24151;SDS011;12311;50.866;4.332;2023-07-09T04:55:55;7.40;;;2.60;;
24151;SDS011;12311;50.866;4.332;2023-07-09T04:58:21;7.82;;;3.53;;
24151;SDS011;12311;50.866;4.332;2023-07-09T05:00:47;7.55;;;2.92;;
24151;SDS011;12311;50.866;4.332;2023-07-09T05:03:14;4.20;;;2.78;;
24151;SDS011;12311;50.866;4.332;2023-07-09T05:05:43;6.28;;;3.05;;
24151;SDS011;12311;50.866;4.332;2023-07-09T05:08:11;7.07;;;2.97;;
24151;SDS011;12311;50.866;4.332;2023-07-09T05:10:41;9.40;;;2.72;;
24151;SDS011;12311;50.866;4.332;2023-07-09T05:13:11;4.60;;;2.60;;
24151;SDS011;12311;50.866;4.332;2023-07-09T05:15:41;4.35;;;2.20;;
24151;SDS011;12311;50.866;4.332;2023-07-09T05:18:09;8.07;;;3.13;;
24151;SDS011;12311;50.866;4.332;2023-07-09T05:20:36;5.25;;;2.40;;
24151;SDS011;12311;50.866;4.332;2023-07-09T05:23:01;6.45;;;2.08;;
24151;SDS011;12311;50.866;4.332;2023-07-09T05:25:27;4.70;;;2.00;;
24151;SDS011;12311;50.866;4.332;2023-07-09T05:27:53;6.65;;;2.55;;
24151;SDS011;12311;50.866;4.332;2023-07-09T05:30:19;5.65;;;2.28;;
24151;SDS011;12311;50.866;4.332;2023-07-09T05:32:45;4.53;;;2.05;;
24151;SDS011;12311;50.866;4.332;2023-07-09T05:35:11;5.90;;;2.20;;
24151;SDS011;12311;50.866;4.332;2023-07-09T05:37:37;8.35;;;2.63;;
24151;SDS011;12311;50.866;4.332;2023-07-09T05:40:03;4.28;;;2.28;;
24151;SDS011;12311;50.866;4.332;2023-07-09T05:42:31;10.35;;;3.20;;
24151;SDS011;12311;50.866;4.332;2023-07-09T05:44:57;6.03;;;2.35;;
24151;SDS011;12311;50.866;4.332;2023-07-09T05:47:22;6.80;;;2.35;;
24151;SDS011;12311;50.866;4.332;2023-07-09T05:49:48;8.38;;;2.35;;
24151;SDS011;12311;50.866;4.332;2023-07-09T05:52:16;4.78;;;1.92;;
24151;SDS011;12311;50.866;4.332;2023-07-09T05:54:42;5.28;;;2.08;;
24151;SDS011;12311;50.866;4.332;2023-07-09T05:57:09;5.38;;;2.63;;
24151;SDS011;12311;50.866;4.332;2023-07-09T05:59:35;4.47;;;2.47;;
24151;SDS011;12311;50.866;4.332;2023-07-09T06:02:01;5.60;;;2.88;;
24151;SDS011;12311;50.866;4.332;2023-07-09T06:04:28;4.38;;;2.30;;
24151;SDS011;12311;50.866;4.332;2023-07-09T06:06:56;5.93;;;2.55;;
24151;SDS011;12311;50.866;4.332;2023-07-09T06:09:22;6.53;;;2.55;;
24151;SDS011;12311;50.866;4.332;2023-07-09T06:11:48;4.22;;;2.13;;
24151;SDS011;12311;50.866;4.332;2023-07-09T06:14:14;3.47;;;2.05;;
24151;SDS011;12311;50.866;4.332;2023-07-09T06:16:41;5.43;;;2.53;;
24151;SDS011;12311;50.866;4.332;2023-07-09T06:19:08;5.10;;;2.42;;
24151;SDS011;12311;50.866;4.332;2023-07-09T06:21:35;4.28;;;2.05;;
24151;SDS011;12311;50.866;4.332;2023-07-09T06:24:00;8.95;;;3.15;;
24151;SDS011;12311;50.866;4.332;2023-07-09T06:26:26;6.43;;;2.70;;
24151;SDS011;12311;50.866;4.332;2023-07-09T06:28:52;5.40;;;2.45;;
24151;SDS011;12311;50.866;4.332;2023-07-09T06:31:17;5.50;;;2.75;;
24151;SDS011;12311;50.866;4.332;2023-07-09T06:33:45;5.65;;;2.42;;
24151;SDS011;12311;50.866;4.332;2023-07-09T06:36:12;6.95;;;3.17;;
24151;SDS011;12311;50.866;4.332;2023-07-09T06:38:38;4.65;;;3.03;;
24151;SDS011;12311;50.866;4.332;2023-07-09T06:41:04;7.53;;;3.35;;
24151;SDS011;12311;50.866;4.332;2023-07-09T06:43:30;6.78;;;3.53;;
24151;SDS011;12311;50.866;4.332;2023-07-09T06:46:00;7.80;;;3.50;;
24151;SDS011;12311;50.866;4.332;2023-07-09T06:48:27;7.70;;;3.47;;
24151;SDS011;12311;50.866;4.332;2023-07-09T06:50:55;5.32;;;3.05;;
24151;SDS011;12311;50.866;4.332;2023-07-09T06:53:22;6.88;;;3.75;;
24151;SDS011;12311;50.866;4.332;2023-07-09T06:55:48;10.27;;;3.53;;
24151;SDS011;12311;50.866;4.332;2023-07-09T06:58:15;8.63;;;3.85;;
24151;SDS011;12311;50.866;4.332;2023-07-09T07:00:42;9.98;;;4.40;;
24151;SDS011;12311;50.866;4.332;2023-07-09T07:03:08;10.82;;;5.80;;
24151;SDS011;12311;50.866;4.332;2023-07-09T07:05:34;18.88;;;8.10;;
24151;SDS011;12311;50.866;4.332;2023-07-09T07:08:00;18.10;;;8.88;;
24151;SDS011;12311;50.866;4.332;2023-07-09T07:10:27;20.42;;;9.60;;
24151;SDS011;12311;50.866;4.332;2023-07-09T07:12:53;23.15;;;9.80;;
24151;SDS011;12311;50.866;4.332;2023-07-09T07:15:19;21.30;;;10.23;;
24151;SDS011;12311;50.866;4.332;2023-07-09T07:17:45;22.95;;;9.65;;
24151;SDS011;12311;50.866;4.332;2023-07-09T07:20:11;21.02;;;10.30;;
24151;SDS011;12311;50.866;4.332;2023-07-09T07:22:39;19.02;;;9.38;;
24151;SDS011;12311;50.866;4.332;2023-07-09T07:25:05;19.73;;;9.02;;
24151;SDS011;12311;50.866;4.332;2023-07-09T07:27:32;22.52;;;9.20;;
24151;SDS011;12311;50.866;4.332;2023-07-09T07:29:58;18.13;;;8.50;;
24151;SDS011;12311;50.866;4.332;2023-07-09T07:32:25;24.35;;;10.32;;
24151;SDS011;12311;50.866;4.332;2023-07-09T07:34:51;17.23;;;9.07;;
24151;SDS011;12311;50.866;4.332;2023-07-09T07:37:20;23.63;;;9.57;;
24151;SDS011;12311;50.866;4.332;2023-07-09T07:39:46;25.73;;;10.10;;
24151;SDS011;12311;50.866;4.332;2023-07-09T07:42:13;21.10;;;9.90;;
24151;SDS011;12311;50.866;4.332;2023-07-09T07:44:39;22.23;;;9.70;;
24151;SDS011;12311;50.866;4.332;2023-07-09T07:47:05;22.45;;;9.60;;
24151;SDS011;12311;50.866;4.332;2023-07-09T07:49:31;18.50;;;9.32;;
24151;SDS011;12311;50.866;4.332;2023-07-09T07:51:56;27.40;;;12.40;;
24151;SDS011;12311;50.866;4.332;2023-07-09T07:54:22;25.23;;;10.93;;
24151;SDS011;12311;50.866;4.332;2023-07-09T07:56:48;23.52;;;9.93;;
24151;SDS011;12311;50.866;4.332;2023-07-09T07:59:14;25.10;;;11.30;;
24151;SDS011;12311;50.866;4.332;2023-07-09T08:01:40;20.92;;;9.10;;
24151;SDS011;12311;50.866;4.332;2023-07-09T08:04:06;16.67;;;8.93;;
24151;SDS011;12311;50.866;4.332;2023-07-09T08:06:31;20.90;;;9.73;;
24151;SDS011;12311;50.866;4.332;2023-07-09T08:08:57;19.50;;;8.43;;
24151;SDS011;12311;50.866;4.332;2023-07-09T08:11:23;16.52;;;8.63;;
24151;SDS011;12311;50.866;4.332;2023-07-09T08:13:50;21.08;;;10.32;;
24151;SDS011;12311;50.866;4.332;2023-07-09T08:16:16;19.65;;;9.10;;
24151;SDS011;12311;50.866;4.332;2023-07-09T08:18:42;18.00;;;8.65;;
24151;SDS011;12311;50.866;4.332;2023-07-09T08:21:08;24.52;;;8.70;;
24151;SDS011;12311;50.866;4.332;2023-07-09T08:23:34;20.52;;;8.80;;
24151;SDS011;12311;50.866;4.332;2023-07-09T08:26:00;18.92;;;9.27;;
24151;SDS011;12311;50.866;4.332;2023-07-09T08:28:28;25.08;;;9.23;;
24151;SDS011;12311;50.866;4.332;2023-07-09T08:30:54;17.08;;;8.15;;
24151;SDS011;12311;50.866;4.332;2023-07-09T08:33:21;19.00;;;8.68;;
24151;SDS011;12311;50.866;4.332;2023-07-09T08:35:51;16.63;;;9.00;;
24151;SDS011;12311;50.866;4.332;2023-07-09T08:38:19;20.85;;;10.00;;
24151;SDS011;12311;50.866;4.332;2023-07-09T08:40:59;22.48;;;10.50;;
24151;SDS011;12311;50.866;4.332;2023-07-09T08:43:32;23.60;;;9.43;;
24151;SDS011;12311;50.866;4.332;2023-07-09T08:46:26;21.08;;;8.82;;
24151;SDS011;12311;50.866;4.332;2023-07-09T08:49:01;22.35;;;9.00;;
24151;SDS011;12311;50.866;4.332;2023-07-09T08:51:33;19.35;;;7.82;;
24151;SDS011;12311;50.866;4.332;2023-07-09T08:54:02;22.08;;;9.50;;
24151;SDS011;12311;50.866;4.332;2023-07-09T08:56:29;16.83;;;7.63;;
24151;SDS011;12311;50.866;4.332;2023-07-09T08:58:58;14.88;;;7.50;;
24151;SDS011;12311;50.866;4.332;2023-07-09T09:01:36;14.73;;;8.23;;
24151;SDS011;12311;50.866;4.332;2023-07-09T09:04:25;21.58;;;8.68;;
24151;SDS011;12311;50.866;4.332;2023-07-09T09:09:49;19.73;;;9.70;;
24151;SDS011;12311;50.866;4.332;2023-07-09T09:12:20;13.85;;;7.38;;
24151;SDS011;12311;50.866;4.332;2023-07-09T09:14:57;19.58;;;8.30;;
24151;SDS011;12311;50.866;4.332;2023-07-09T09:17:30;20.98;;;9.60;;
24151;SDS011;12311;50.866;4.332;2023-07-09T09:20:00;16.23;;;8.45;;
24151;SDS011;12311;50.866;4.332;2023-07-09T09:27:53;17.23;;;8.20;;
24151;SDS011;12311;50.866;4.332;2023-07-09T09:30:21;22.25;;;9.75;;
24151;SDS011;12311;50.866;4.332;2023-07-09T09:32:56;19.25;;;9.48;;
24151;SDS011;12311;50.866;4.332;2023-07-09T09:35:27;21.95;;;9.02;;
24151;SDS011;12311;50.866;4.332;2023-07-09T09:37:58;19.48;;;9.52;;
24151;SDS011;12311;50.866;4.332;2023-07-09T09:40:25;15.32;;;6.93;;
24151;SDS011;12311;50.866;4.332;2023-07-09T09:42:55;13.65;;;7.93;;
24151;SDS011;12311;50.866;4.332;2023-07-09T09:45:29;15.55;;;7.32;;
24151;SDS011;12311;50.866;4.332;2023-07-09T09:48:09;18.97;;;8.67;;
24151;SDS011;12311;50.866;4.332;2023-07-09T09:50:37;13.48;;;7.70;;
24151;SDS011;12311;50.866;4.332;2023-07-09T09:53:02;16.02;;;7.63;;
24151;SDS011;12311;50.866;4.332;2023-07-09T09:55:33;14.57;;;6.70;;
24151;SDS011;12311;50.866;4.332;2023-07-09T09:57:59;14.73;;;6.53;;
24151;SDS011;12311;50.866;4.332;2023-07-09T10:00:28;17.83;;;6.10;;
24151;SDS011;12311;50.866;4.332;2023-07-09T10:03:01;14.20;;;6.60;;
24151;SDS011;12311;50.866;4.332;2023-07-09T10:05:38;10.88;;;6.20;;
24151;SDS011;12311;50.866;4.332;2023-07-09T10:11:17;14.27;;;6.00;;
24151;SDS011;12311;50.866;4.332;2023-07-09T10:13:46;12.35;;;4.72;;
24151;SDS011;12311;50.866;4.332;2023-07-09T10:19:14;9.70;;;5.10;;
24151;SDS011;12311;50.866;4.332;2023-07-09T10:22:04;10.95;;;4.72;;
24151;SDS011;12311;50.866;4.332;2023-07-09T10:30:29;7.53;;;3.63;;
24151;SDS011;12311;50.866;4.332;2023-07-09T10:33:14;10.43;;;4.55;;
24151;SDS011;12311;50.866;4.332;2023-07-09T10:41:29;6.30;;;3.75;;
24151;SDS011;12311;50.866;4.332;2023-07-09T10:43:58;7.80;;;3.55;;
24151;SDS011;12311;50.866;4.332;2023-07-09T10:46:37;7.93;;;4.40;;
24151;SDS011;12311;50.866;4.332;2023-07-09T10:49:05;8.35;;;3.45;;
24151;SDS011;12311;50.866;4.332;2023-07-09T10:54:18;9.98;;;3.65;;
24151;SDS011;12311;50.866;4.332;2023-07-09T10:59:32;4.38;;;2.28;;
24151;SDS011;12311;50.866;4.332;2023-07-09T11:04:58;4.60;;;1.90;;
24151;SDS011;12311;50.866;4.332;2023-07-09T11:10:25;3.22;;;1.60;;
24151;SDS011;12311;50.866;4.332;2023-07-09T11:12:55;3.30;;;2.15;;
24151;SDS011;12311;50.866;4.332;2023-07-09T11:15:34;3.85;;;1.50;;
24151;SDS011;12311;50.866;4.332;2023-07-09T11:18:04;6.10;;;1.83;;
24151;SDS011;12311;50.866;4.332;2023-07-09T11:20:35;2.58;;;1.48;;
24151;SDS011;12311;50.866;4.332;2023-07-09T11:23:15;6.68;;;1.92;;
24151;SDS011;12311;50.866;4.332;2023-07-09T11:26:08;5.67;;;1.50;;
24151;SDS011;12311;50.866;4.332;2023-07-09T11:28:50;4.15;;;1.40;;
24151;SDS011;12311;50.866;4.332;2023-07-09T11:31:42;3.10;;;1.75;;
24151;SDS011;12311;50.866;4.332;2023-07-09T11:36:47;3.97;;;1.58;;
24151;SDS011;12311;50.866;4.332;2023-07-09T11:39:23;3.70;;;2.13;;
24151;SDS011;12311;50.866;4.332;2023-07-09T11:42:01;2.95;;;1.70;;
24151;SDS011;12311;50.866;4.332;2023-07-09T11:44:32;4.32;;;2.03;;
24151;SDS011;12311;50.866;4.332;2023-07-09T11:49:49;3.00;;;1.70;;
24151;SDS011;12311;50.866;4.332;2023-07-09T11:52:26;2.47;;;1.30;;
24151;SDS011;12311;50.866;4.332;2023-07-09T11:55:01;2.58;;;1.48;;
24151;SDS011;12311;50.866;4.332;2023-07-09T11:57:36;3.53;;;1.60;;
24151;SDS011;12311;50.866;4.332;2023-07-09T12:00:01;3.28;;;1.75;;
24151;SDS011;12311;50.866;4.332;2023-07-09T12:02:29;3.38;;;1.60;;
24151;SDS011;12311;50.866;4.332;2023-07-09T12:04:58;3.10;;;1.40;;
24151;SDS011;12311;50.866;4.332;2023-07-09T12:07:27;3.65;;;1.63;;
24151;SDS011;12311;50.866;4.332;2023-07-09T12:09:54;3.58;;;1.70;;
24151;SDS011;12311;50.866;4.332;2023-07-09T12:12:22;2.42;;;1.33;;
24151;SDS011;12311;50.866;4.332;2023-07-09T12:14:50;4.55;;;1.80;;
24151;SDS011;12311;50.866;4.332;2023-07-09T12:17:17;4.65;;;2.10;;
24151;SDS011;12311;50.866;4.332;2023-07-09T12:19:43;4.82;;;1.90;;
24151;SDS011;12311;50.866;4.332;2023-07-09T12:22:16;7.72;;;2.35;;
24151;SDS011;12311;50.866;4.332;2023-07-09T12:24:45;3.50;;;1.70;;
24151;SDS011;12311;50.866;4.332;2023-07-09T12:27:20;5.72;;;2.75;;
24151;SDS011;12311;50.866;4.332;2023-07-09T12:29:53;5.63;;;2.97;;
24151;SDS011;12311;50.866;4.332;2023-07-09T12:32:20;5.03;;;2.97;;
24151;SDS011;12311;50.866;4.332;2023-07-09T12:34:51;3.88;;;1.80;;
24151;SDS011;12311;50.866;4.332;2023-07-09T12:37:17;4.70;;;2.75;;
24151;SDS011;12311;50.866;4.332;2023-07-09T12:39:45;6.78;;;2.67;;
24151;SDS011;12311;50.866;4.332;2023-07-09T12:42:16;5.03;;;2.80;;
24151;SDS011;12311;50.866;4.332;2023-07-09T12:44:49;8.20;;;3.58;;
24151;SDS011;12311;50.866;4.332;2023-07-09T12:47:15;7.35;;;3.35;;
24151;SDS011;12311;50.866;4.332;2023-07-09T12:49:44;6.65;;;2.25;;
24151;SDS011;12311;50.866;4.332;2023-07-09T12:52:29;5.07;;;2.72;;
24151;SDS011;12311;50.866;4.332;2023-07-09T12:54:58;7.60;;;2.90;;
24151;SDS011;12311;50.866;4.332;2023-07-09T12:57:25;9.18;;;3.53;;
24151;SDS011;12311;50.866;4.332;2023-07-09T12:59:53;5.32;;;3.00;;
24151;SDS011;12311;50.866;4.332;2023-07-09T13:02:27;4.50;;;2.17;;
24151;SDS011;12311;50.866;4.332;2023-07-09T13:05:01;4.70;;;2.35;;
24151;SDS011;12311;50.866;4.332;2023-07-09T13:07:31;7.43;;;3.00;;
24151;SDS011;12311;50.866;4.332;2023-07-09T13:10:04;7.00;;;2.45;;
24151;SDS011;12311;50.866;4.332;2023-07-09T13:12:33;5.22;;;3.08;;
24151;SDS011;12311;50.866;4.332;2023-07-09T13:14:59;5.05;;;2.40;;
24151;SDS011;12311;50.866;4.332;2023-07-09T13:17:27;5.25;;;2.75;;
24151;SDS011;12311;50.866;4.332;2023-07-09T13:19:55;8.88;;;2.67;;
24151;SDS011;12311;50.866;4.332;2023-07-09T13:22:22;6.50;;;3.38;;
24151;SDS011;12311;50.866;4.332;2023-07-09T13:24:49;6.75;;;2.60;;
24151;SDS011;12311;50.866;4.332;2023-07-09T13:27:15;5.03;;;2.67;;
24151;SDS011;12311;50.866;4.332;2023-07-09T13:29:41;12.40;;;2.90;;
24151;SDS011;12311;50.866;4.332;2023-07-09T13:32:10;3.75;;;2.20;;
24151;SDS011;12311;50.866;4.332;2023-07-09T13:34:36;6.30;;;2.38;;
24151;SDS011;12311;50.866;4.332;2023-07-09T13:37:04;5.43;;;2.70;;
24151;SDS011;12311;50.866;4.332;2023-07-09T13:39:30;6.57;;;2.80;;
24151;SDS011;12311;50.866;4.332;2023-07-09T13:41:56;6.60;;;2.47;;
24151;SDS011;12311;50.866;4.332;2023-07-09T13:44:24;6.15;;;2.97;;
24151;SDS011;12311;50.866;4.332;2023-07-09T13:46:52;7.57;;;2.90;;
24151;SDS011;12311;50.866;4.332;2023-07-09T13:49:19;4.38;;;2.33;;
24151;SDS011;12311;50.866;4.332;2023-07-09T13:51:48;4.85;;;2.60;;
24151;SDS011;12311;50.866;4.332;2023-07-09T13:54:20;4.88;;;2.28;;
24151;SDS011;12311;50.866;4.332;2023-07-09T13:56:48;3.60;;;1.75;;
24151;SDS011;12311;50.866;4.332;2023-07-09T13:59:21;6.72;;;1.98;;
24151;SDS011;12311;50.866;4.332;2023-07-09T14:01:48;6.57;;;2.30;;
24151;SDS011;12311;50.866;4.332;2023-07-09T14:04:16;11.45;;;1.98;;
24151;SDS011;12311;50.866;4.332;2023-07-09T14:06:44;6.78;;;2.80;;
24151;SDS011;12311;50.866;4.332;2023-07-09T14:09:13;9.07;;;2.20;;
24151;SDS011;12311;50.866;4.332;2023-07-09T14:11:50;3.63;;;1.85;;
24151;SDS011;12311;50.866;4.332;2023-07-09T14:16:47;6.43;;;1.60;;
24151;SDS011;12311;50.866;4.332;2023-07-09T14:19:18;2.83;;;1.50;;
24151;SDS011;12311;50.866;4.332;2023-07-09T14:21:46;3.33;;;1.40;;
24151;SDS011;12311;50.866;4.332;2023-07-09T14:24:26;3.17;;;1.60;;
24151;SDS011;12311;50.866;4.332;2023-07-09T14:26:54;3.90;;;1.27;;
24151;SDS011;12311;50.866;4.332;2023-07-09T14:29:22;3.75;;;1.73;;
24151;SDS011;12311;50.866;4.332;2023-07-09T14:31:49;2.50;;;1.52;;
24151;SDS011;12311;50.866;4.332;2023-07-09T14:34:22;1.40;;;0.88;;
24151;SDS011;12311;50.866;4.332;2023-07-09T14:36:49;3.17;;;1.45;;
24151;SDS011;12311;50.866;4.332;2023-07-09T14:39:16;7.57;;;1.30;;
24151;SDS011;12311;50.866;4.332;2023-07-09T14:41:42;2.15;;;1.05;;
24151;SDS011;12311;50.866;4.332;2023-07-09T14:44:22;3.53;;;1.52;;
24151;SDS011;12311;50.866;4.332;2023-07-09T14:46:51;2.50;;;1.42;;
24151;SDS011;12311;50.866;4.332;2023-07-09T14:49:19;2.72;;;0.93;;
24151;SDS011;12311;50.866;4.332;2023-07-09T14:51:45;2.00;;;1.20;;
24151;SDS011;12311;50.866;4.332;2023-07-09T14:54:19;3.85;;;1.40;;
24151;SDS011;12311;50.866;4.332;2023-07-09T14:56:47;2.03;;;1.08;;
24151;SDS011;12311;50.866;4.332;2023-07-09T14:59:13;2.30;;;1.17;;
24151;SDS011;12311;50.866;4.332;2023-07-09T15:01:39;3.85;;;1.20;;
24151;SDS011;12311;50.866;4.332;2023-07-09T15:06:55;2.75;;;1.42;;
24151;SDS011;12311;50.866;4.332;2023-07-09T15:09:23;1.83;;;1.17;;
24151;SDS011;12311;50.866;4.332;2023-07-09T15:11:52;2.08;;;1.20;;
24151;SDS011;12311;50.866;4.332;2023-07-09T15:14:23;3.63;;;1.45;;
24151;SDS011;12311;50.866;4.332;2023-07-09T15:16:50;2.42;;;1.52;;
24151;SDS011;12311;50.866;4.332;2023-07-09T15:19:18;1.88;;;1.00;;
24151;SDS011;12311;50.866;4.332;2023-07-09T15:21:45;8.25;;;2.10;;
24151;SDS011;12311;50.866;4.332;2023-07-09T15:24:14;2.80;;;1.50;;
24151;SDS011;12311;50.866;4.332;2023-07-09T15:26:48;2.10;;;1.10;;
24151;SDS011;12311;50.866;4.332;2023-07-09T15:31:43;2.05;;;1.20;;
24151;SDS011;12311;50.866;4.332;2023-07-09T15:34:08;1.80;;;1.15;;
24151;SDS011;12311;50.866;4.332;2023-07-09T15:36:35;4.15;;;1.30;;
24151;SDS011;12311;50.866;4.332;2023-07-09T15:39:01;2.92;;;1.40;;
24151;SDS011;12311;50.866;4.332;2023-07-09T15:41:26;2.63;;;1.38;;
24151;SDS011;12311;50.866;4.332;2023-07-09T15:43:52;2.00;;;1.23;;
24151;SDS011;12311;50.866;4.332;2023-07-09T15:46:19;5.78;;;1.33;;
24151;SDS011;12311;50.866;4.332;2023-07-09T15:48:47;4.47;;;1.65;;
24151;SDS011;12311;50.866;4.332;2023-07-09T15:51:14;4.90;;;1.38;;
24151;SDS011;12311;50.866;4.332;2023-07-09T15:53:40;4.53;;;1.20;;
24151;SDS011;12311;50.866;4.332;2023-07-09T15:56:26;3.20;;;1.60;;